createdAt,value
2018-12-29T00:01:23.517Z,4.00
2018-12-29T00:03:52.741Z,3.20
2018-12-29T00:06:21.999Z,3.27
2018-12-29T00:08:51.232Z,3.23
2018-12-29T00:11:20.803Z,3.63
2018-12-29T00:13:50.048Z,3.87
2018-12-29T00:16:19.313Z,3.80
2018-12-29T00:18:48.680Z,3.83
2018-12-29T00:21:17.961Z,4.30
2018-12-29T00:23:47.184Z,3.73
2018-12-29T00:26:16.520Z,3.83
2018-12-29T00:28:45.784Z,4.50
2018-12-29T00:31:15.044Z,4.47
2018-12-29T00:33:44.312Z,5.03
2018-12-29T00:36:13.568Z,4.60
2018-12-29T00:38:42.801Z,4.13
2018-12-29T00:41:12.434Z,4.77
2018-12-29T00:43:41.696Z,4.23
2018-12-29T00:46:10.916Z,3.77
2018-12-29T00:48:40.154Z,4.30
2018-12-29T00:51:09.448Z,3.90
2018-12-29T00:53:38.691Z,3.70
2018-12-29T00:56:07.967Z,3.90
2018-12-29T00:58:37.232Z,3.50
2018-12-29T01:01:06.463Z,4.00
2018-12-29T01:03:35.731Z,3.47
2018-12-29T01:06:04.956Z,3.87
2018-12-29T01:08:34.180Z,3.67
2018-12-29T01:11:03.460Z,3.57
2018-12-29T01:13:32.692Z,3.90
2018-12-29T01:16:01.991Z,3.67
2018-12-29T01:18:31.264Z,5.43
2018-12-29T01:21:00.599Z,4.10
2018-12-29T01:23:29.840Z,3.97
2018-12-29T01:25:59.147Z,4.07
2018-12-29T01:28:28.374Z,3.93
2018-12-29T01:30:57.611Z,4.03
2018-12-29T01:33:26.879Z,4.40
2018-12-29T01:35:56.133Z,3.80
2018-12-29T01:38:25.396Z,4.20
2018-12-29T01:40:54.655Z,4.37
2018-12-29T01:43:23.933Z,4.27
2018-12-29T01:45:53.159Z,4.47
2018-12-29T01:48:22.435Z,4.70
2018-12-29T01:50:51.671Z,4.83
2018-12-29T01:53:20.927Z,4.20
2018-12-29T01:55:50.164Z,3.73
2018-12-29T01:58:19.480Z,3.97
2018-12-29T02:00:48.708Z,3.87
2018-12-29T02:03:17.975Z,3.93
2018-12-29T02:05:47.431Z,4.17
2018-12-29T02:08:16.707Z,3.77
2018-12-29T02:10:46.080Z,3.40
2018-12-29T02:13:15.516Z,3.57
2018-12-29T02:15:44.783Z,3.90
2018-12-29T02:18:14.047Z,3.47
2018-12-29T02:20:43.347Z,3.60
2018-12-29T02:23:12.667Z,3.30
2018-12-29T02:25:41.927Z,3.13
2018-12-29T02:28:11.220Z,3.03
2018-12-29T02:30:40.494Z,3.07
2018-12-29T02:33:09.774Z,3.00
2018-12-29T02:35:38.988Z,3.10
2018-12-29T02:38:08.249Z,2.47
2018-12-29T02:40:37.507Z,2.80
2018-12-29T02:43:07.338Z,2.40
2018-12-29T02:45:36.606Z,2.50
2018-12-29T02:48:05.830Z,2.40
2018-12-29T02:50:35.098Z,2.60
2018-12-29T02:53:04.420Z,2.50
2018-12-29T02:55:33.658Z,2.40
2018-12-29T02:58:02.934Z,2.60
2018-12-29T03:00:32.159Z,2.00
2018-12-29T03:03:01.430Z,2.30
2018-12-29T03:05:30.634Z,2.00
2018-12-29T03:07:59.978Z,2.10
2018-12-29T03:10:29.205Z,2.03
2018-12-29T03:12:58.546Z,2.70
2018-12-29T03:15:27.810Z,2.40
2018-12-29T03:17:57.206Z,2.53
2018-12-29T03:20:26.478Z,2.03
2018-12-29T03:22:55.735Z,2.20
2018-12-29T03:25:24.971Z,2.43
2018-12-29T03:27:54.334Z,1.90
2018-12-29T03:30:23.567Z,2.30
2018-12-29T03:32:52.832Z,2.30
2018-12-29T03:35:22.090Z,2.40
2018-12-29T03:37:51.350Z,2.40
2018-12-29T03:40:20.610Z,2.63
2018-12-29T03:42:49.871Z,2.00
2018-12-29T03:45:19.139Z,3.17
2018-12-29T03:47:48.482Z,2.80
2018-12-29T03:50:17.709Z,3.47
2018-12-29T03:52:46.914Z,3.13
2018-12-29T03:55:16.274Z,3.30
2018-12-29T03:57:45.515Z,2.63
2018-12-29T04:00:14.820Z,2.90
2018-12-29T04:02:44.061Z,2.00
2018-12-29T04:05:13.355Z,1.80
2018-12-29T04:07:42.673Z,2.10
2018-12-29T04:10:15.397Z,2.00
2018-12-29T04:12:48.065Z,1.67
2018-12-29T04:15:17.461Z,2.30
2018-12-29T04:17:46.761Z,2.03
2018-12-29T04:20:16.057Z,2.43
2018-12-29T04:22:45.326Z,1.90
2018-12-29T04:25:14.589Z,2.13
2018-12-29T04:27:43.829Z,1.90
2018-12-29T04:30:13.869Z,1.90
2018-12-29T04:32:43.101Z,2.10
2018-12-29T04:35:12.378Z,2.30
2018-12-29T04:37:41.675Z,2.10
2018-12-29T04:40:11.341Z,2.13
2018-12-29T04:42:40.585Z,2.00
2018-12-29T04:45:09.821Z,2.40
2018-12-29T04:47:39.097Z,2.53
2018-12-29T04:50:08.768Z,2.07
2018-12-29T04:52:38.001Z,2.20
2018-12-29T04:55:07.257Z,2.23
2018-12-29T04:57:36.500Z,2.00
2018-12-29T05:00:06.593Z,2.40
2018-12-29T05:02:35.821Z,2.10
2018-12-29T05:05:05.424Z,2.20
2018-12-29T05:07:34.699Z,1.93
2018-12-29T05:10:04.033Z,2.77
2018-12-29T05:12:33.302Z,2.70
2018-12-29T05:15:02.540Z,2.93
2018-12-29T05:17:31.804Z,6.23
2018-12-29T05:20:01.060Z,3.70
2018-12-29T05:22:30.360Z,5.07
2018-12-29T05:24:59.624Z,4.10
2018-12-29T05:27:28.904Z,3.73
2018-12-29T05:29:58.128Z,3.23
2018-12-29T05:32:27.400Z,3.23
2018-12-29T05:34:57.489Z,3.37
2018-12-29T05:37:26.716Z,4.40
2018-12-29T05:39:55.988Z,4.43
2018-12-29T05:42:25.236Z,6.07
2018-12-29T05:44:54.488Z,5.90
2018-12-29T05:47:23.748Z,3.67
2018-12-29T05:49:53.244Z,3.87
2018-12-29T05:52:22.461Z,4.30
2018-12-29T05:54:51.722Z,3.40
2018-12-29T05:57:20.955Z,2.90
2018-12-29T05:59:50.224Z,3.27
2018-12-29T06:02:19.496Z,3.70
2018-12-29T06:04:48.744Z,5.60
2018-12-29T06:07:18.004Z,3.80
2018-12-29T06:09:47.316Z,4.00
2018-12-29T06:12:16.588Z,4.60
2018-12-29T06:14:45.905Z,4.67
2018-12-29T06:17:15.164Z,4.90
2018-12-29T06:19:44.427Z,4.53
2018-12-29T06:22:13.732Z,4.83
2018-12-29T06:24:43.132Z,4.20
2018-12-29T06:27:12.384Z,4.27
2018-12-29T06:29:42.053Z,4.40
2018-12-29T06:32:11.267Z,4.53
2018-12-29T06:34:40.514Z,4.60
2018-12-29T06:37:09.775Z,4.40
2018-12-29T06:39:39.011Z,5.57
2018-12-29T06:42:08.271Z,5.33
2018-12-29T06:44:37.548Z,4.53
2018-12-29T06:47:06.905Z,4.70
2018-12-29T06:49:36.143Z,4.93
2018-12-29T06:52:05.394Z,5.20
2018-12-29T06:54:34.655Z,6.77
2018-12-29T06:57:03.919Z,7.60
2018-12-29T06:59:33.187Z,11.10
2018-12-29T07:02:02.686Z,15.40
2018-12-29T07:04:31.943Z,13.80
2018-12-29T07:07:01.187Z,18.80
2018-12-29T07:09:30.459Z,11.23
2018-12-29T07:11:59.727Z,9.53
2018-12-29T07:14:28.955Z,7.97
2018-12-29T07:16:58.219Z,8.93
2018-12-29T07:19:27.487Z,7.53
2018-12-29T07:21:56.775Z,7.40
2018-12-29T07:24:26.055Z,7.70
2018-12-29T07:26:55.323Z,7.30
2018-12-29T07:29:24.555Z,7.83
2018-12-29T07:31:53.822Z,7.40
2018-12-29T07:34:23.058Z,8.87
2018-12-29T07:36:52.322Z,8.27
2018-12-29T07:39:21.818Z,10.07
2018-12-29T07:41:51.103Z,10.20
2018-12-29T07:44:20.422Z,11.57
2018-12-29T07:46:49.869Z,15.00
2018-12-29T07:49:19.162Z,12.90
2018-12-29T07:51:48.434Z,10.00
2018-12-29T07:54:18.008Z,10.93
2018-12-29T07:56:47.246Z,9.83
2018-12-29T07:59:16.507Z,10.40
2018-12-29T08:01:45.818Z,12.43
2018-12-29T08:04:15.102Z,12.50
2018-12-29T08:06:44.425Z,10.83
2018-12-29T08:09:13.657Z,12.03
2018-12-29T08:11:43.036Z,11.40
2018-12-29T08:14:12.285Z,20.47
2018-12-29T08:16:41.569Z,18.67
2018-12-29T08:19:10.832Z,19.47
2018-12-29T08:21:40.140Z,15.13
2018-12-29T08:24:09.396Z,15.40
2018-12-29T08:26:38.628Z,15.23
2018-12-29T08:29:07.913Z,15.30
2018-12-29T08:31:37.158Z,17.23
2018-12-29T08:34:07.020Z,16.87
2018-12-29T08:36:36.372Z,13.57
2018-12-29T08:39:06.721Z,11.43
2018-12-29T08:41:35.992Z,11.80
2018-12-29T08:44:05.301Z,13.43
2018-12-29T08:46:34.536Z,13.03
2018-12-29T08:49:03.803Z,9.63
2018-12-29T08:51:33.043Z,13.20
2018-12-29T08:54:02.323Z,11.17
2018-12-29T08:56:31.709Z,15.47
2018-12-29T08:59:00.959Z,15.07
2018-12-29T09:01:30.277Z,18.77
2018-12-29T09:03:59.531Z,22.13
2018-12-29T09:06:28.758Z,16.10
2018-12-29T09:08:58.087Z,15.57
2018-12-29T09:11:27.391Z,17.60
2018-12-29T09:13:56.647Z,18.73
2018-12-29T09:16:25.911Z,16.57
2018-12-29T09:18:55.143Z,20.07
2018-12-29T09:21:24.647Z,14.53
2018-12-29T09:23:53.905Z,16.80
2018-12-29T09:26:23.151Z,12.37
2018-12-29T09:28:52.425Z,13.33
2018-12-29T09:31:21.735Z,12.40
2018-12-29T09:33:51.871Z,12.10
2018-12-29T09:36:21.393Z,17.40
2018-12-29T09:38:50.723Z,12.47
2018-12-29T09:41:20.071Z,14.27
2018-12-29T09:43:49.319Z,12.27
2018-12-29T09:46:18.502Z,15.47
2018-12-29T09:48:47.747Z,19.77
2018-12-29T09:51:17.743Z,23.93
2018-12-29T09:53:46.963Z,30.33
2018-12-29T09:56:16.194Z,25.83
2018-12-29T09:58:45.466Z,35.43
2018-12-29T10:01:14.698Z,29.23
2018-12-29T10:03:43.962Z,28.40
2018-12-29T10:06:13.235Z,27.73
2018-12-29T10:08:42.554Z,23.63
2018-12-29T10:11:11.787Z,26.33
2018-12-29T10:13:41.109Z,22.37
2018-12-29T10:16:10.370Z,23.97
2018-12-29T10:18:39.654Z,22.87
2018-12-29T10:21:08.918Z,23.70
2018-12-29T10:23:38.129Z,31.07
2018-12-29T10:26:07.376Z,24.20
2018-12-29T10:28:36.707Z,21.60
2018-12-29T10:31:07.335Z,19.80
2018-12-29T10:33:36.562Z,29.33
2018-12-29T10:36:05.870Z,13.30
2018-12-29T10:38:35.144Z,20.87
2018-12-29T10:41:04.413Z,14.73
2018-12-29T10:43:33.707Z,24.20
2018-12-29T10:46:02.962Z,23.53
2018-12-29T10:48:32.266Z,36.20
2018-12-29T10:51:01.510Z,37.10
2018-12-29T10:53:30.770Z,27.00
2018-12-29T10:56:00.117Z,27.00
2018-12-29T10:58:29.342Z,20.97
2018-12-29T11:00:58.831Z,53.67
2018-12-29T11:03:28.086Z,36.37
2018-12-29T11:05:57.389Z,31.73
2018-12-29T11:08:26.674Z,25.47
2018-12-29T11:10:55.990Z,13.50
2018-12-29T11:13:25.262Z,17.43
2018-12-29T11:15:54.534Z,39.77
2018-12-29T11:18:23.961Z,11.90
2018-12-29T11:20:53.235Z,12.60
2018-12-29T11:23:22.557Z,13.77
2018-12-29T11:25:51.785Z,27.27
2018-12-29T11:28:21.046Z,23.10
2018-12-29T11:30:50.335Z,21.27
2018-12-29T11:33:19.581Z,15.27
2018-12-29T11:35:48.830Z,14.80
2018-12-29T11:38:18.120Z,21.27
2018-12-29T11:40:47.333Z,16.43
2018-12-29T11:43:16.686Z,16.37
2018-12-29T11:45:45.830Z,18.57
2018-12-29T11:48:15.097Z,25.13
2018-12-29T11:50:44.437Z,11.90
2018-12-29T11:53:13.692Z,11.43
2018-12-29T11:55:42.920Z,13.13
2018-12-29T11:58:12.195Z,19.80
2018-12-29T12:00:41.420Z,13.90
2018-12-29T12:03:10.684Z,9.53
2018-12-29T12:05:39.922Z,9.97
2018-12-29T12:08:09.507Z,9.97
2018-12-29T12:10:38.768Z,16.07
2018-12-29T12:13:08.061Z,9.93
2018-12-29T12:15:37.363Z,10.87
2018-12-29T12:18:06.593Z,11.73
2018-12-29T12:20:35.848Z,13.67
2018-12-29T12:23:05.108Z,11.63
2018-12-29T12:25:34.404Z,12.60
2018-12-29T12:28:04.045Z,12.50
2018-12-29T12:30:33.317Z,16.17
2018-12-29T12:33:02.552Z,11.93
2018-12-29T12:35:31.904Z,8.80
2018-12-29T12:38:01.268Z,14.67
2018-12-29T12:40:30.521Z,15.40
2018-12-29T12:42:59.742Z,18.30
2018-12-29T12:45:29.012Z,18.10
2018-12-29T12:48:04.988Z,9.77
2018-12-29T12:50:29.159Z,10.23
2018-12-29T12:52:58.465Z,8.77
2018-12-29T12:55:27.840Z,8.90
2018-12-29T12:57:57.280Z,12.83
2018-12-29T13:00:26.852Z,15.07
2018-12-29T13:02:56.220Z,13.63
2018-12-29T13:05:25.461Z,10.83
2018-12-29T13:07:54.922Z,9.90
2018-12-29T13:10:24.192Z,11.73
2018-12-29T13:12:53.420Z,10.00
2018-12-29T13:15:22.744Z,16.20
2018-12-29T13:17:52.002Z,12.77
2018-12-29T13:20:21.447Z,21.53
2018-12-29T13:22:50.698Z,14.47
2018-12-29T13:25:19.950Z,11.50
2018-12-29T13:27:49.211Z,10.90
2018-12-29T13:30:18.474Z,11.53
2018-12-29T13:32:47.714Z,12.77
2018-12-29T13:35:16.979Z,14.30
2018-12-29T13:37:46.242Z,10.03
2018-12-29T13:40:15.502Z,15.33
2018-12-29T13:42:44.867Z,15.37
2018-12-29T13:45:14.338Z,14.03
2018-12-29T13:47:43.698Z,14.50
2018-12-29T13:50:13.003Z,15.73
2018-12-29T13:52:42.236Z,12.57
2018-12-29T13:55:11.582Z,13.73
2018-12-29T13:57:40.798Z,15.00
2018-12-29T14:00:10.075Z,13.33
2018-12-29T14:02:39.297Z,14.80
2018-12-29T14:05:08.560Z,14.03
2018-12-29T14:07:37.887Z,14.57
2018-12-29T14:10:07.250Z,15.20
2018-12-29T14:12:36.509Z,15.40
2018-12-29T14:15:05.890Z,15.13
2018-12-29T14:17:35.253Z,12.70
2018-12-29T14:20:05.473Z,14.03
2018-12-29T14:22:35.064Z,15.03
2018-12-29T14:25:04.344Z,13.57
2018-12-29T14:27:33.616Z,13.80
2018-12-29T14:30:02.881Z,13.27
2018-12-29T14:32:32.129Z,14.67
2018-12-29T14:35:02.341Z,13.43
2018-12-29T14:37:31.618Z,14.43
2018-12-29T14:40:01.306Z,17.03
2018-12-29T14:42:30.945Z,13.33
2018-12-29T14:45:00.262Z,14.10
2018-12-29T14:47:29.585Z,15.87
2018-12-29T14:49:59.245Z,14.00
2018-12-29T14:52:28.555Z,15.03
2018-12-29T14:54:57.845Z,14.70
2018-12-29T14:57:27.209Z,15.90
2018-12-29T14:59:56.445Z,15.90
2018-12-29T15:02:25.685Z,17.43
2018-12-29T15:04:55.037Z,17.67
2018-12-29T15:07:24.277Z,18.03
2018-12-29T15:09:53.546Z,20.83
2018-12-29T15:12:22.874Z,17.70
2018-12-29T15:14:52.584Z,22.60
2018-12-29T15:17:21.933Z,17.33
2018-12-29T15:19:51.217Z,18.57
2018-12-29T15:22:20.465Z,17.90
2018-12-29T15:24:50.089Z,16.60
2018-12-29T15:27:19.465Z,18.57
2018-12-29T15:29:48.737Z,20.60
2018-12-29T15:32:18.242Z,18.87
2018-12-29T15:34:47.505Z,19.23
2018-12-29T15:37:16.748Z,19.73
2018-12-29T15:39:46.117Z,19.23
2018-12-29T15:42:15.631Z,20.03
2018-12-29T15:44:44.896Z,17.57
2018-12-29T15:47:14.128Z,18.67
2018-12-29T15:49:43.400Z,18.83
2018-12-29T15:52:12.652Z,26.10
2018-12-29T15:54:42.424Z,20.10
2018-12-29T15:57:11.668Z,18.43
2018-12-29T15:59:43.027Z,18.90
2018-12-29T16:02:12.271Z,19.67
2018-12-29T16:04:41.521Z,20.20
2018-12-29T16:07:10.792Z,20.10
2018-12-29T16:09:40.233Z,22.03
2018-12-29T16:12:09.488Z,18.80
2018-12-29T16:14:38.801Z,16.73
2018-12-29T16:17:08.350Z,16.43
2018-12-29T16:19:40.862Z,14.57
2018-12-29T16:22:10.125Z,15.90
2018-12-29T16:24:39.375Z,13.53
2018-12-29T16:27:08.747Z,13.73
2018-12-29T16:29:37.967Z,13.40
2018-12-29T16:32:07.247Z,12.43
2018-12-29T16:34:36.475Z,12.30
2018-12-29T16:37:05.743Z,12.40
2018-12-29T16:39:35.287Z,11.03
2018-12-29T16:42:04.555Z,13.10
2018-12-29T16:44:33.791Z,11.60
2018-12-29T16:47:03.131Z,12.53
2018-12-29T16:49:32.711Z,10.87
2018-12-29T16:52:01.967Z,12.00
2018-12-29T16:54:31.194Z,9.53
2018-12-29T16:57:00.458Z,9.87
2018-12-29T16:59:30.022Z,10.93
2018-12-29T17:01:59.306Z,11.03
2018-12-29T17:04:28.530Z,10.70
2018-12-29T17:06:57.760Z,10.77
2018-12-29T17:09:27.331Z,10.47
2018-12-29T17:11:56.568Z,10.23
2018-12-29T17:14:25.883Z,9.63
2018-12-29T17:16:55.230Z,9.93
2018-12-29T17:19:24.479Z,9.17
2018-12-29T17:21:53.822Z,11.27
2018-12-29T17:24:23.078Z,10.23
2018-12-29T17:26:52.418Z,11.83
2018-12-29T17:29:21.921Z,11.17
2018-12-29T17:31:51.182Z,12.03
2018-12-29T17:34:20.526Z,10.47
2018-12-29T17:36:49.974Z,10.53
2018-12-29T17:39:19.315Z,10.43
2018-12-29T17:41:48.698Z,10.10
2018-12-29T17:44:18.058Z,12.13
2018-12-29T17:46:47.398Z,11.23
2018-12-29T17:49:22.782Z,9.97
2018-12-29T17:51:47.602Z,9.73
2018-12-29T17:54:16.829Z,10.63
2018-12-29T17:56:46.081Z,10.43
2018-12-29T17:59:15.621Z,10.57
2018-12-29T18:01:45.103Z,12.50
2018-12-29T18:04:14.426Z,12.57
2018-12-29T18:06:43.758Z,12.93
2018-12-29T18:09:13.006Z,13.80
2018-12-29T18:11:42.456Z,16.13
2018-12-29T18:14:11.758Z,13.60
2018-12-29T18:16:41.014Z,9.87
2018-12-29T18:19:10.538Z,12.40
2018-12-29T18:21:39.881Z,14.30
2018-12-29T18:24:09.117Z,11.27
2018-12-29T18:26:38.379Z,11.17
2018-12-29T18:29:08.057Z,11.97
2018-12-29T18:31:37.373Z,12.40
2018-12-29T18:34:06.597Z,12.13
2018-12-29T18:36:35.829Z,14.57
2018-12-29T18:39:07.197Z,11.60
2018-12-29T18:41:36.432Z,13.67
2018-12-29T18:44:05.993Z,12.30
2018-12-29T18:46:35.228Z,11.57
2018-12-29T18:49:04.500Z,12.67
2018-12-29T18:51:34.036Z,16.70
2018-12-29T18:54:03.272Z,13.03
2018-12-29T18:56:32.841Z,13.97
2018-12-29T18:59:02.063Z,14.67
2018-12-29T19:01:31.351Z,14.70
2018-12-29T19:04:00.651Z,12.80
2018-12-29T19:06:29.991Z,13.67
2018-12-29T19:08:59.304Z,13.83
2018-12-29T19:11:28.874Z,15.23
2018-12-29T19:13:58.104Z,15.30
2018-12-29T19:16:27.429Z,14.27
2018-12-29T19:18:56.783Z,16.10
2018-12-29T19:21:26.144Z,18.03
2018-12-29T19:23:55.855Z,16.13
2018-12-29T19:26:25.413Z,17.63
2018-12-29T19:28:54.973Z,18.07
2018-12-29T19:31:24.275Z,18.43
2018-12-29T19:33:53.502Z,17.37
2018-12-29T19:36:22.737Z,19.23
2018-12-29T19:38:52.002Z,18.73
2018-12-29T19:41:21.226Z,15.60
2018-12-29T19:43:50.750Z,17.40
2018-12-29T19:46:20.209Z,18.87
2018-12-29T19:48:49.529Z,16.53
2018-12-29T19:51:18.782Z,16.40
2018-12-29T19:53:48.410Z,15.53
2018-12-29T19:56:17.666Z,18.37
2018-12-29T19:58:46.926Z,15.50
2018-12-29T20:01:16.186Z,20.50
2018-12-29T20:03:45.442Z,18.63
2018-12-29T20:06:14.765Z,18.43
2018-12-29T20:08:44.029Z,20.97
2018-12-29T20:11:13.278Z,17.47
2018-12-29T20:13:42.601Z,16.93
2018-12-29T20:16:11.841Z,18.63
2018-12-29T20:18:41.101Z,18.40
2018-12-29T20:21:10.345Z,17.33
2018-12-29T20:23:39.605Z,20.20
2018-12-29T20:26:08.901Z,18.03
2018-12-29T20:28:38.198Z,24.87
2018-12-29T20:31:07.773Z,18.83
2018-12-29T20:33:36.998Z,20.03
2018-12-29T20:36:06.269Z,17.20
2018-12-29T20:38:35.609Z,17.97
2018-12-29T20:41:04.997Z,18.23
2018-12-29T20:43:34.545Z,17.90
2018-12-29T20:46:03.910Z,21.33
2018-12-29T20:48:33.141Z,19.63
2018-12-29T20:51:02.419Z,19.50
2018-12-29T20:53:31.661Z,18.50
2018-12-29T20:56:00.945Z,16.33
2018-12-29T20:58:30.253Z,17.53
2018-12-29T21:00:59.521Z,21.87
2018-12-29T21:03:28.753Z,20.30
2018-12-29T21:05:58.017Z,17.33
2018-12-29T21:08:27.325Z,19.17
2018-12-29T21:10:56.562Z,20.37
2018-12-29T21:13:25.804Z,18.90
2018-12-29T21:15:55.133Z,18.03
2018-12-29T21:18:24.442Z,18.83
2018-12-29T21:20:53.689Z,18.80
2018-12-29T21:23:23.366Z,19.37
2018-12-29T21:25:52.670Z,18.83
2018-12-29T21:28:21.950Z,18.00
2018-12-29T21:30:51.269Z,19.47
2018-12-29T21:33:20.558Z,18.03
2018-12-29T21:35:50.170Z,19.17
2018-12-29T21:38:19.481Z,20.07
2018-12-29T21:40:48.697Z,18.33
2018-12-29T21:43:17.989Z,19.80
2018-12-29T21:45:47.253Z,18.13
2018-12-29T21:48:16.596Z,18.33
2018-12-29T21:50:45.869Z,19.30
2018-12-29T21:53:15.101Z,19.00
2018-12-29T21:55:44.377Z,17.73
2018-12-29T21:58:13.688Z,45.07
2018-12-29T22:00:42.963Z,19.80
2018-12-29T22:03:12.545Z,19.23
2018-12-29T22:05:41.785Z,17.80
2018-12-29T22:08:11.028Z,18.63
2018-12-29T22:10:40.289Z,19.37
2018-12-29T22:13:09.570Z,19.67
2018-12-29T22:15:39.013Z,17.27
2018-12-29T22:18:08.282Z,18.70
2018-12-29T22:20:37.517Z,19.37
2018-12-29T22:23:06.865Z,18.87
2018-12-29T22:25:36.091Z,22.73
2018-12-29T22:28:05.442Z,20.40
2018-12-29T22:30:34.749Z,20.33
2018-12-29T22:33:03.972Z,18.77
2018-12-29T22:35:33.242Z,20.00
2018-12-29T22:38:02.448Z,20.17
2018-12-29T22:40:31.777Z,20.80
2018-12-29T22:43:01.112Z,21.00
2018-12-29T22:45:30.420Z,19.50
2018-12-29T22:47:59.656Z,19.47
2018-12-29T22:50:29.015Z,18.57
2018-12-29T22:52:58.400Z,20.70
2018-12-29T22:55:27.752Z,18.87
2018-12-29T22:57:56.992Z,19.93
2018-12-29T23:00:43.396Z,18.60
2018-12-29T23:03:13.127Z,18.97
2018-12-29T23:05:42.391Z,21.17
2018-12-29T23:08:11.751Z,20.30
2018-12-29T23:10:41.015Z,19.93
2018-12-29T23:13:10.247Z,19.23
2018-12-29T23:15:39.563Z,19.83
2018-12-29T23:18:08.787Z,19.97
2018-12-29T23:20:38.464Z,20.90
2018-12-29T23:23:07.727Z,19.67
2018-12-29T23:25:36.966Z,18.47
2018-12-29T23:28:06.227Z,18.30
2018-12-29T23:30:37.323Z,18.70
2018-12-29T23:33:06.647Z,19.30
2018-12-29T23:35:35.872Z,20.83
2018-12-29T23:38:05.418Z,20.30
2018-12-29T23:40:35.019Z,21.63
2018-12-29T23:43:04.255Z,20.93
2018-12-29T23:45:33.823Z,22.10
2018-12-29T23:48:03.167Z,20.97
2018-12-29T23:50:32.431Z,20.00
2018-12-29T23:53:02.287Z,21.07
2018-12-29T23:55:31.851Z,21.90
2018-12-29T23:58:01.223Z,22.37
